Time;durP1;ratioP1;P1;durP2;ratioP2;P2;SDS_P1;SDS_P2;PMS_P1;PMS_P2;Temp;Humidity;BMP_temperature;BMP_pressure;BME280_temperature;BME280_humidity;BME280_pressure;Samples;Min_cycle;Max_cycle;Signal;HPM_P1;HPM_P2
2023/04/17 00:00:32;;;;;;;3.20;2.70;;;8.10;99.90;;;;;;5105562;28;20423;-67
2023/04/17 00:03:00;;;;;;;5.07;2.90;;;8.00;99.90;;;;;;5108433;27;20430;-67
2023/04/17 00:05:27;;;;;;;2.67;2.47;;;8.00;99.90;;;;;;5097633;27;20940;-67
2023/04/17 00:07:55;;;;;;;4.03;2.50;;;8.10;99.90;;;;;;5121649;27;20456;-67
2023/04/17 00:10:25;;;;;;;5.83;3.07;;;8.00;99.90;;;;;;5087016;28;20426;-67
2023/04/17 00:12:52;;;;;;;3.77;3.17;;;8.10;99.90;;;;;;5098811;28;20419;-67
2023/04/17 00:15:19;;;;;;;1.80;1.70;;;8.10;99.90;;;;;;5111994;27;20507;-67
2023/04/17 00:17:46;;;;;;;4.05;2.83;;;8.10;99.90;;;;;;5095582;27;20417;-67
2023/04/17 00:20:13;;;;;;;2.53;2.25;;;8.10;99.90;;;;;;5098839;27;21014;-66
2023/04/17 00:22:40;;;;;;;3.97;2.42;;;8.10;99.90;;;;;;5102505;28;20452;-66
2023/04/17 00:25:09;;;;;;;3.97;2.83;;;8.10;99.90;;;;;;5107827;27;20432;-66
2023/04/17 00:27:36;;;;;;;3.53;3.08;;;8.10;99.90;;;;;;5094150;28;20428;-66
2023/04/17 00:30:03;;;;;;;3.72;2.53;;;8.20;99.90;;;;;;5103441;27;20431;-66
2023/04/17 00:32:30;;;;;;;4.68;2.60;;;8.20;99.90;;;;;;5093559;28;20422;-66
2023/04/17 00:34:57;;;;;;;3.55;2.65;;;8.10;99.90;;;;;;5090491;28;20979;-66
2023/04/17 00:37:24;;;;;;;4.07;3.15;;;8.20;99.90;;;;;;5109161;28;20436;-65
2023/04/17 00:39:50;;;;;;;3.25;2.70;;;8.20;99.90;;;;;;5118291;27;20429;-66
2023/04/17 00:42:17;;;;;;;3.38;2.92;;;8.20;99.90;;;;;;5099448;27;20430;-67
2023/04/17 00:44:44;;;;;;;2.70;2.50;;;8.20;99.90;;;;;;5124431;27;20419;-66
2023/04/17 00:47:12;;;;;;;5.80;3.33;;;8.20;99.90;;;;;;5100515;27;20934;-66
2023/04/17 00:49:39;;;;;;;4.17;3.30;;;8.20;99.90;;;;;;5109244;27;20917;-66
2023/04/17 00:52:06;;;;;;;4.75;2.38;;;8.20;99.90;;;;;;5112978;27;20888;-66
2023/04/17 00:54:34;;;;;;;2.55;2.35;;;8.20;99.90;;;;;;5114601;27;20422;-66
2023/04/17 00:57:02;;;;;;;5.13;3.13;;;8.20;99.90;;;;;;5130673;27;20517;-66
2023/04/17 00:59:31;;;;;;;3.90;2.73;;;8.20;99.90;;;;;;5132302;27;20427;-66
2023/04/17 01:01:58;;;;;;;3.35;2.05;;;8.30;99.90;;;;;;5107572;27;20430;-67
2023/04/17 01:04:26;;;;;;;3.33;3.03;;;8.20;99.90;;;;;;5105065;28;20423;-67
2023/04/17 01:06:53;;;;;;;3.13;2.55;;;8.20;99.90;;;;;;5111346;28;20428;-68
2023/04/17 01:09:19;;;;;;;3.22;2.33;;;8.10;99.90;;;;;;5095147;28;20922;-67
2023/04/17 01:11:48;;;;;;;2.70;2.20;;;8.20;99.90;;;;;;5095089;27;20426;-68
2023/04/17 01:14:18;;;;;;;4.63;3.13;;;8.10;99.90;;;;;;5089056;28;20421;-69
2023/04/17 01:16:44;;;;;;;2.78;2.40;;;8.20;99.90;;;;;;5092499;27;20427;-68
2023/04/17 01:19:17;;;;;;;9.80;3.28;;;8.30;99.90;;;;;;5107366;27;20448;-68
2023/04/17 01:21:44;;;;;;;2.72;2.50;;;8.30;99.90;;;;;;5109514;28;20447;-68
2023/04/17 01:24:11;;;;;;;6.28;3.63;;;8.30;99.90;;;;;;5096656;28;21107;-68
2023/04/17 01:26:37;;;;;;;3.30;3.00;;;8.30;99.90;;;;;;5117294;27;20429;-68
2023/04/17 01:29:07;;;;;;;3.50;2.97;;;8.40;99.90;;;;;;5126791;27;20421;-68
2023/04/17 01:31:33;;;;;;;2.97;2.42;;;8.40;99.90;;;;;;5088842;28;20425;-68
2023/04/17 01:34:02;;;;;;;4.78;2.88;;;8.40;99.90;;;;;;5091236;28;20426;-68
2023/04/17 01:36:29;;;;;;;3.90;2.65;;;8.30;99.90;;;;;;5110768;27;20412;-68
2023/04/17 01:38:55;;;;;;;3.97;3.03;;;8.30;99.90;;;;;;5094163;27;20513;-68
2023/04/17 01:41:22;;;;;;;3.67;2.90;;;8.20;99.90;;;;;;5117233;27;20431;-68
2023/04/17 01:43:49;;;;;;;3.70;2.97;;;8.10;99.90;;;;;;5109566;27;20443;-68
2023/04/17 01:46:16;;;;;;;4.72;2.47;;;8.20;99.90;;;;;;5088854;28;20457;-68
2023/04/17 01:48:43;;;;;;;3.20;2.42;;;8.20;99.90;;;;;;5110565;27;20798;-68
2023/04/17 01:51:09;;;;;;;5.35;3.42;;;8.30;99.90;;;;;;5110281;28;20519;-68
2023/04/17 01:53:37;;;;;;;8.03;3.30;;;8.30;99.90;;;;;;5101405;28;20422;-68
2023/04/17 01:56:04;;;;;;;3.37;2.57;;;8.30;99.90;;;;;;5092345;28;20998;-68
2023/04/17 01:58:31;;;;;;;4.30;2.30;;;8.30;99.90;;;;;;5113448;27;20426;-68
2023/04/17 02:00:58;;;;;;;2.42;2.22;;;8.30;99.90;;;;;;5113138;27;20727;-68
2023/04/17 02:03:25;;;;;;;2.73;2.50;;;8.30;99.90;;;;;;5094339;28;20436;-68
2023/04/17 02:05:52;;;;;;;2.67;2.03;;;8.30;99.90;;;;;;5113398;27;20428;-68
2023/04/17 02:08:19;;;;;;;3.85;3.33;;;8.40;99.90;;;;;;5110269;28;20914;-68
2023/04/17 02:10:46;;;;;;;4.65;2.97;;;8.30;99.90;;;;;;5102193;28;20438;-68
2023/04/17 02:13:13;;;;;;;4.60;2.15;;;8.20;99.90;;;;;;5089440;28;20462;-68
2023/04/17 02:15:40;;;;;;;3.77;2.53;;;8.20;99.90;;;;;;5109883;28;20420;-68
2023/04/17 02:18:07;;;;;;;6.30;3.70;;;8.20;99.90;;;;;;5108410;27;20471;-69
2023/04/17 02:20:34;;;;;;;3.53;2.90;;;8.10;99.90;;;;;;5130047;27;20482;-68
2023/04/17 02:23:06;;;;;;;6.55;2.75;;;8.10;99.90;;;;;;5106045;27;20430;-68
2023/04/17 02:25:33;;;;;;;2.78;2.40;;;8.10;99.90;;;;;;5090720;28;20435;-69
2023/04/17 02:28:00;;;;;;;2.47;2.28;;;8.20;99.90;;;;;;5106826;28;20425;-69
2023/04/17 02:30:27;;;;;;;3.47;2.20;;;8.10;99.90;;;;;;5113690;28;20429;-69
2023/04/17 02:32:54;;;;;;;5.07;2.83;;;8.10;99.90;;;;;;5117768;27;20507;-69
2023/04/17 02:35:25;;;;;;;2.47;2.28;;;8.10;99.90;;;;;;5108265;28;20477;-68
2023/04/17 02:37:52;;;;;;;2.47;1.75;;;8.10;99.90;;;;;;5088620;28;20563;-67
2023/04/17 02:40:19;;;;;;;4.00;3.05;;;8.00;99.90;;;;;;5089442;28;20981;-67
2023/04/17 02:42:46;;;;;;;2.05;1.83;;;8.00;99.90;;;;;;5108599;28;20430;-67
2023/04/17 02:45:13;;;;;;;2.47;2.28;;;7.90;99.90;;;;;;5089870;28;20495;-67
2023/04/17 02:47:40;;;;;;;2.15;1.95;;;7.90;99.90;;;;;;5116293;28;20426;-67
2023/04/17 02:50:08;;;;;;;8.80;2.42;;;7.90;99.90;;;;;;5130312;27;20426;-67
2023/04/17 02:52:35;;;;;;;2.65;2.28;;;7.90;99.90;;;;;;5111452;27;20455;-67
2023/04/17 02:55:05;;;;;;;2.97;2.15;;;7.90;99.90;;;;;;5112383;28;20756;-67
2023/04/17 02:57:32;;;;;;;2.25;2.15;;;7.90;99.90;;;;;;5112716;28;20424;-67
2023/04/17 03:00:00;;;;;;;2.58;1.98;;;7.90;99.90;;;;;;5110672;28;20428;-67
2023/04/17 03:02:29;;;;;;;3.90;2.33;;;7.80;99.90;;;;;;5114714;27;20501;-67
2023/04/17 03:04:56;;;;;;;2.30;1.92;;;7.90;99.90;;;;;;5112209;28;20447;-67
2023/04/17 03:07:23;;;;;;;2.42;2.22;;;7.90;99.90;;;;;;5111217;28;20538;-67
2023/04/17 03:09:52;;;;;;;2.10;1.90;;;7.90;99.90;;;;;;5127590;27;20430;-67
2023/04/17 03:12:19;;;;;;;2.33;2.07;;;7.80;99.90;;;;;;5115658;27;20425;-69
2023/04/17 03:14:46;;;;;;;2.75;2.38;;;7.80;99.90;;;;;;5092619;28;20430;-69
2023/04/17 03:17:14;;;;;;;4.28;3.05;;;7.80;99.90;;;;;;5108827;28;20473;-69
2023/04/17 03:19:41;;;;;;;3.38;1.80;;;7.80;99.90;;;;;;5127161;27;20428;-68
2023/04/17 03:22:08;;;;;;;1.90;1.60;;;7.80;99.90;;;;;;5107125;27;20493;-69
2023/04/17 03:24:36;;;;;;;1.80;1.70;;;7.80;99.90;;;;;;5118802;27;20926;-69
2023/04/17 03:27:03;;;;;;;2.15;2.05;;;7.80;99.90;;;;;;5097895;27;20428;-69
2023/04/17 03:29:30;;;;;;;2.67;2.30;;;7.80;99.90;;;;;;5107288;27;20923;-69
2023/04/17 03:31:56;;;;;;;2.70;2.23;;;7.80;99.90;;;;;;5123834;27;20420;-68
2023/04/17 03:34:24;;;;;;;2.00;1.90;;;7.80;99.90;;;;;;5116575;27;20445;-68
2023/04/17 03:36:51;;;;;;;2.67;1.80;;;7.80;99.90;;;;;;5121401;27;20842;-69
2023/04/17 03:39:21;;;;;;;2.15;1.75;;;7.80;99.90;;;;;;5108502;27;20428;-69
2023/04/17 03:41:51;;;;;;;3.13;2.33;;;7.90;99.90;;;;;;5109326;27;20467;-69
2023/04/17 03:44:18;;;;;;;2.55;2.38;;;7.80;99.90;;;;;;5112500;27;20538;-69
2023/04/17 03:46:44;;;;;;;2.10;2.00;;;7.80;99.90;;;;;;5122891;27;20428;-69
2023/04/17 03:49:11;;;;;;;2.03;1.65;;;7.90;99.90;;;;;;5093542;27;20465;-68
2023/04/17 03:51:38;;;;;;;3.45;2.05;;;7.90;99.90;;;;;;5117377;27;20692;-69
2023/04/17 03:54:05;;;;;;;4.80;1.75;;;7.90;99.90;;;;;;5105226;27;20915;-69
2023/04/17 03:56:32;;;;;;;2.33;2.13;;;7.90;99.90;;;;;;5122364;27;20426;-69
2023/04/17 03:58:59;;;;;;;2.13;1.75;;;7.90;99.90;;;;;;5124902;27;20430;-69
2023/04/17 04:01:28;;;;;;;2.70;2.42;;;7.80;99.90;;;;;;5101313;27;20513;-68
2023/04/17 04:03:55;;;;;;;2.05;1.60;;;7.80;99.90;;;;;;5112362;27;20440;-68
2023/04/17 04:06:28;;;;;;;2.10;1.88;;;7.70;99.90;;;;;;5108375;27;20429;-68
2023/04/17 04:08:58;;;;;;;6.30;2.00;;;7.70;99.90;;;;;;5120119;27;20423;-69
2023/04/17 04:11:31;;;;;;;2.20;1.90;;;7.60;99.90;;;;;;5114568;27;20432;-69
2023/04/17 04:13:57;;;;;;;3.20;1.95;;;7.60;99.90;;;;;;5117198;27;20425;-69
2023/04/17 04:16:24;;;;;;;5.25;1.90;;;7.50;99.90;;;;;;5105001;27;20432;-68
2023/04/17 04:18:51;;;;;;;2.05;1.70;;;7.40;99.90;;;;;;5121195;27;20418;-68
2023/04/17 04:21:22;;;;;;;1.92;1.83;;;7.40;99.90;;;;;;5104218;27;20429;-68
2023/04/17 04:23:49;;;;;;;4.67;2.17;;;7.40;99.90;;;;;;5096896;27;20459;-68
2023/04/17 04:26:16;;;;;;;2.67;2.47;;;7.30;99.90;;;;;;5095934;27;20468;-68
2023/04/17 04:28:43;;;;;;;2.20;1.70;;;7.30;99.90;;;;;;5102816;28;21218;-68
2023/04/17 04:31:13;;;;;;;3.07;2.50;;;7.20;99.90;;;;;;5094160;28;20431;-68
2023/04/17 04:33:40;;;;;;;2.80;2.58;;;7.20;99.90;;;;;;5107306;27;20432;-68
2023/04/17 04:36:07;;;;;;;2.70;1.90;;;7.00;99.90;;;;;;5098398;28;20424;-69
2023/04/17 04:38:33;;;;;;;3.65;1.67;;;6.80;99.90;;;;;;5100944;27;20424;-69
2023/04/17 04:41:00;;;;;;;5.13;2.13;;;6.60;99.90;;;;;;5099430;28;20477;-69
2023/04/17 04:43:33;;;;;;;2.97;2.67;;;6.60;99.90;;;;;;5099957;27;20438;-69
2023/04/17 04:45:59;;;;;;;4.57;2.20;;;6.50;99.90;;;;;;5118707;27;20479;-69
2023/04/17 04:48:27;;;;;;;3.72;2.60;;;6.50;99.90;;;;;;5099914;28;20790;-69
2023/04/17 04:50:57;;;;;;;4.00;2.45;;;6.40;99.90;;;;;;5107681;27;20437;-68
2023/04/17 04:53:24;;;;;;;2.42;2.33;;;6.30;99.90;;;;;;5106202;27;20507;-69
2023/04/17 04:55:50;;;;;;;1.67;1.58;;;6.20;99.90;;;;;;5106562;27;20454;-69
2023/04/17 04:58:17;;;;;;;1.90;1.80;;;6.00;99.90;;;;;;5107788;27;20422;-69
2023/04/17 05:00:44;;;;;;;2.30;2.17;;;5.90;99.90;;;;;;5112162;27;21131;-69
2023/04/17 05:03:11;;;;;;;2.15;2.05;;;5.90;99.90;;;;;;5111437;28;20420;-69
2023/04/17 05:05:39;;;;;;;2.78;2.55;;;5.90;99.90;;;;;;5103138;28;21041;-69
2023/04/17 05:08:06;;;;;;;2.45;2.00;;;5.90;99.90;;;;;;5108888;28;20507;-68
2023/04/17 05:10:33;;;;;;;2.75;2.05;;;6.00;99.90;;;;;;5097704;27;20428;-68
2023/04/17 05:13:00;;;;;;;2.88;2.40;;;6.00;99.90;;;;;;5102415;28;20420;-68
2023/04/17 05:15:27;;;;;;;3.17;2.67;;;6.00;99.90;;;;;;5112704;27;20420;-68
2023/04/17 05:17:53;;;;;;;1.25;1.23;;;6.00;99.90;;;;;;5119996;27;20996;-68
2023/04/17 05:20:20;;;;;;;3.25;1.85;;;6.00;99.90;;;;;;5107336;27;20882;-68
2023/04/17 05:22:48;;;;;;;2.70;2.42;;;6.00;99.90;;;;;;5122582;27;20422;-68
2023/04/17 05:25:15;;;;;;;2.75;2.22;;;6.10;99.90;;;;;;5108413;27;20966;-68
2023/04/17 05:27:42;;;;;;;2.25;2.05;;;6.10;99.90;;;;;;5117997;27;20816;-67
2023/04/17 05:30:09;;;;;;;2.22;1.83;;;6.10;99.90;;;;;;5086756;27;20434;-68
2023/04/17 05:32:36;;;;;;;2.30;2.10;;;6.10;99.90;;;;;;5104309;27;20448;-70
2023/04/17 05:35:04;;;;;;;2.55;2.05;;;6.10;99.90;;;;;;5105447;28;20926;-68
2023/04/17 05:37:31;;;;;;;3.97;2.83;;;6.10;99.90;;;;;;5110472;27;20431;-69
2023/04/17 05:39:59;;;;;;;2.17;2.03;;;6.20;99.90;;;;;;5106655;27;21162;-69
2023/04/17 05:42:26;;;;;;;4.50;3.58;;;6.20;99.90;;;;;;5094118;27;20417;-68
2023/04/17 05:44:53;;;;;;;2.20;2.00;;;6.30;99.90;;;;;;5108263;27;20515;-69
2023/04/17 05:47:19;;;;;;;2.90;2.60;;;6.20;99.90;;;;;;5104840;27;20438;-69
2023/04/17 05:49:47;;;;;;;1.63;1.52;;;6.30;99.90;;;;;;5114420;27;20456;-69
2023/04/17 05:52:14;;;;;;;2.63;1.65;;;6.40;99.90;;;;;;5108275;28;20943;-69
2023/04/17 05:54:41;;;;;;;3.10;2.30;;;6.50;99.90;;;;;;5094619;28;20432;-69
2023/04/17 05:57:08;;;;;;;3.42;2.78;;;6.50;99.90;;;;;;5104873;28;20426;-69
2023/04/17 05:59:35;;;;;;;5.15;2.90;;;6.60;99.90;;;;;;5107438;28;21113;-69
2023/04/17 06:02:03;;;;;;;5.53;3.05;;;6.70;99.90;;;;;;5101132;27;20436;-69
2023/04/17 06:04:30;;;;;;;3.67;2.58;;;6.70;99.90;;;;;;5087893;28;20428;-69
2023/04/17 06:06:58;;;;;;;3.20;2.83;;;6.80;99.90;;;;;;5093634;28;20428;-69
2023/04/17 06:09:24;;;;;;;2.92;2.42;;;6.90;99.90;;;;;;5108235;28;20435;-69
2023/04/17 06:11:51;;;;;;;3.85;2.88;;;6.90;99.90;;;;;;5104529;28;20513;-69
2023/04/17 06:14:18;;;;;;;3.67;3.30;;;7.00;99.90;;;;;;5103675;27;20425;-69
2023/04/17 06:16:48;;;;;;;2.57;2.37;;;7.10;99.90;;;;;;5096755;28;20434;-69
2023/04/17 06:19:15;;;;;;;3.77;3.10;;;7.10;99.90;;;;;;5096781;28;20457;-69
2023/04/17 06:21:41;;;;;;;3.28;3.03;;;7.20;99.90;;;;;;5099881;27;20433;-69
2023/04/17 06:24:08;;;;;;;4.68;3.38;;;7.40;99.90;;;;;;5093801;28;20428;-68
2023/04/17 06:26:36;;;;;;;3.42;3.13;;;7.50;99.90;;;;;;5088682;28;20436;-68
2023/04/17 06:29:03;;;;;;;5.50;3.57;;;7.90;99.90;;;;;;5087897;28;20432;-68
2023/04/17 06:31:30;;;;;;;3.78;3.03;;;8.50;99.90;;;;;;5090420;28;20439;-68
2023/04/17 06:33:57;;;;;;;4.30;3.42;;;9.30;99.90;;;;;;5092782;28;20883;-69
2023/04/17 06:36:25;;;;;;;5.57;3.83;;;10.00;99.90;;;;;;5092497;28;20477;-67
2023/04/17 06:38:51;;;;;;;5.70;4.20;;;10.70;99.90;;;;;;5091562;28;20426;-67
2023/04/17 06:41:18;;;;;;;9.17;4.73;;;11.40;99.90;;;;;;5085236;28;21334;-67
2023/04/17 06:43:47;;;;;;;7.22;5.00;;;12.10;99.90;;;;;;5082242;28;20436;-67
2023/04/17 06:46:14;;;;;;;6.78;4.53;;;12.50;99.90;;;;;;5100516;28;20860;-67
2023/04/17 06:48:41;;;;;;;6.37;3.53;;;12.70;99.90;;;;;;5108271;28;20429;-67
2023/04/17 06:52:30;;;;;;;6.43;4.10;;;13.00;99.90;;;;;;5101592;27;20896;-68
2023/04/17 06:54:58;;;;;;;7.13;4.38;;;13.30;99.90;;;;;;5087011;28;20438;-68
2023/04/17 06:57:24;;;;;;;5.32;3.40;;;13.40;99.90;;;;;;5082226;28;20427;-68
2023/04/17 06:59:51;;;;;;;4.97;3.35;;;13.00;99.90;;;;;;5111776;27;20438;-67
2023/04/17 07:02:18;;;;;;;5.03;3.38;;;12.60;99.90;;;;;;5082334;28;20877;-67
2023/04/17 07:04:45;;;;;;;3.95;3.50;;;12.40;99.90;;;;;;5087285;28;20430;-69
2023/04/17 07:07:12;;;;;;;5.40;3.75;;;12.20;99.90;;;;;;5080479;28;20429;-68
2023/04/17 07:09:38;;;;;;;6.68;4.13;;;12.30;99.90;;;;;;5072576;28;21098;-68
2023/04/17 07:12:05;;;;;;;7.70;3.25;;;12.20;99.90;;;;;;5079160;28;20427;-67
2023/04/17 07:14:32;;;;;;;6.38;3.58;;;12.40;99.90;;;;;;5085381;28;20427;-67
2023/04/17 07:16:59;;;;;;;3.88;3.40;;;12.40;99.90;;;;;;5081397;28;20517;-67
2023/04/17 07:19:28;;;;;;;4.75;3.15;;;12.50;99.90;;;;;;5082996;28;20425;-67
2023/04/17 07:21:55;;;;;;;4.78;3.70;;;12.70;99.90;;;;;;5080955;28;20427;-67
2023/04/17 07:24:22;;;;;;;3.90;3.50;;;13.00;99.90;;;;;;5077192;28;20882;-67
2023/04/17 07:26:51;;;;;;;5.15;3.35;;;13.40;99.90;;;;;;5078437;28;20437;-67
2023/04/17 07:29:18;;;;;;;4.85;3.33;;;13.60;99.90;;;;;;5066353;28;20438;-67
2023/04/17 07:31:45;;;;;;;3.55;2.78;;;14.00;99.90;;;;;;5069379;28;20432;-67
2023/04/17 07:34:11;;;;;;;4.57;3.50;;;14.30;99.90;;;;;;5068686;28;20504;-67
2023/04/17 07:36:38;;;;;;;5.70;4.30;;;14.40;99.90;;;;;;5064892;28;20427;-67
2023/04/17 07:39:06;;;;;;;5.65;3.58;;;14.50;99.90;;;;;;5069537;28;20442;-67
2023/04/17 07:41:33;;;;;;;3.53;3.05;;;14.90;99.90;;;;;;5064434;28;20432;-68
2023/04/17 07:44:04;;;;;;;4.13;3.37;;;15.10;99.90;;;;;;5078309;28;20434;-67
2023/04/17 07:46:31;;;;;;;4.37;3.00;;;15.30;99.90;;;;;;5069960;28;20561;-67
2023/04/17 07:48:58;;;;;;;3.95;3.03;;;14.90;99.90;;;;;;5080040;28;20435;-67
2023/04/17 07:51:25;;;;;;;4.80;3.20;;;14.50;99.90;;;;;;5076795;28;20424;-67
2023/04/17 07:53:52;;;;;;;5.25;3.38;;;14.20;99.90;;;;;;5084225;28;20438;-67
2023/04/17 07:56:18;;;;;;;4.80;3.33;;;13.90;99.90;;;;;;5082078;28;20446;-68
2023/04/17 07:58:45;;;;;;;3.45;2.97;;;13.80;99.90;;;;;;5082936;28;20427;-67
2023/04/17 08:01:12;;;;;;;4.03;2.87;;;13.80;99.90;;;;;;5078213;28;21315;-67
2023/04/17 08:03:40;;;;;;;3.40;3.05;;;13.80;99.90;;;;;;5068938;28;20427;-68
2023/04/17 08:06:07;;;;;;;3.95;3.15;;;14.00;99.90;;;;;;5070885;28;20429;-67
2023/04/17 08:08:35;;;;;;;3.40;3.08;;;14.30;99.90;;;;;;5081249;28;20430;-68
2023/04/17 08:11:02;;;;;;;5.07;3.60;;;14.20;99.90;;;;;;5056998;28;20432;-68
2023/04/17 08:13:32;;;;;;;6.13;2.97;;;14.30;99.90;;;;;;5062664;28;20456;-69
2023/04/17 08:15:58;;;;;;;3.42;2.28;;;14.20;99.90;;;;;;5073864;28;20425;-68
2023/04/17 08:18:25;;;;;;;4.30;3.25;;;14.10;99.90;;;;;;5078544;28;20831;-68
2023/04/17 08:20:52;;;;;;;5.13;2.50;;;14.00;99.90;;;;;;5066450;28;20433;-68
2023/04/17 08:23:19;;;;;;;5.40;3.40;;;14.10;99.90;;;;;;5084414;28;20439;-67
2023/04/17 08:25:46;;;;;;;3.72;3.13;;;14.00;99.90;;;;;;5065345;28;20432;-68
2023/04/17 08:28:13;;;;;;;3.77;2.77;;;13.70;99.90;;;;;;5068137;28;20485;-67
2023/04/17 08:30:42;;;;;;;4.67;2.87;;;13.70;99.90;;;;;;5063464;28;20481;-68
2023/04/17 08:33:09;;;;;;;4.30;3.20;;;13.70;99.90;;;;;;5060356;28;20431;-68
2023/04/17 08:35:35;;;;;;;5.68;3.65;;;13.70;99.90;;;;;;5062149;28;20511;-67
2023/04/17 08:38:02;;;;;;;3.80;2.42;;;13.40;99.90;;;;;;5070160;28;20426;-68
2023/04/17 08:40:29;;;;;;;2.85;2.17;;;13.10;99.90;;;;;;5068665;28;20432;-67
2023/04/17 08:42:58;;;;;;;4.22;3.38;;;13.10;99.90;;;;;;5051738;28;20452;-68
2023/04/17 08:45:25;;;;;;;3.80;3.13;;;13.10;99.90;;;;;;5071006;28;20431;-68
2023/04/17 08:47:52;;;;;;;4.05;3.03;;;13.20;99.90;;;;;;5070942;28;20423;-68
2023/04/17 08:50:20;;;;;;;3.95;2.88;;;13.10;99.90;;;;;;5064230;28;20480;-68
2023/04/17 08:52:49;;;;;;;3.95;2.95;;;13.00;99.90;;;;;;5056280;28;20445;-68
2023/04/17 08:55:24;;;;;;;3.22;2.67;;;12.90;99.90;;;;;;5058827;28;20419;-68
2023/04/17 08:57:59;;;;;;;7.63;3.20;;;12.70;99.90;;;;;;5058581;28;20459;-68
2023/04/17 09:00:28;;;;;;;4.57;3.00;;;12.50;99.90;;;;;;5066300;28;20427;-68
2023/04/17 09:02:57;;;;;;;3.45;2.72;;;12.50;99.90;;;;;;5053044;28;20518;-68
2023/04/17 09:05:25;;;;;;;3.23;2.93;;;12.50;99.90;;;;;;5062883;28;20776;-68
2023/04/17 09:08:24;;;;;;;5.47;2.97;;;12.50;99.90;;;;;;5091164;28;20462;-68
2023/04/17 09:10:53;;;;;;;4.60;2.83;;;12.40;99.90;;;;;;4998662;28;20434;-67
2023/04/17 09:13:23;;;;;;;3.63;2.65;;;12.30;99.90;;;;;;4997298;28;20496;-68
2023/04/17 09:16:11;;;;;;;5.13;3.80;;;12.20;99.90;;;;;;5008239;28;20435;-68
2023/04/17 09:18:44;;;;;;;4.88;3.00;;;12.10;99.90;;;;;;5002801;28;20459;-68
2023/04/17 09:21:15;;;;;;;4.35;2.78;;;12.10;99.90;;;;;;5007672;28;20436;-68
2023/04/17 09:23:54;;;;;;;7.25;3.22;;;12.10;99.90;;;;;;5001037;28;20546;-67
2023/04/17 09:26:22;;;;;;;3.63;3.33;;;11.80;99.90;;;;;;4995651;28;20436;-68
2023/04/17 09:29:12;;;;;;;2.55;2.35;;;11.60;99.90;;;;;;5007055;28;20436;-68
2023/04/17 09:31:41;;;;;;;5.22;3.28;;;11.60;99.90;;;;;;5012977;28;20443;-67
2023/04/17 09:34:12;;;;;;;6.28;3.53;;;11.30;99.90;;;;;;4997611;28;20854;-68
2023/04/17 09:36:40;;;;;;;4.55;3.40;;;11.20;99.90;;;;;;5007743;28;20428;-68
2023/04/17 09:39:19;;;;;;;4.68;3.05;;;11.10;99.90;;;;;;5015907;28;20437;-68
2023/04/17 09:41:46;;;;;;;6.03;3.58;;;11.10;99.90;;;;;;5009403;28;20439;-67
2023/04/17 09:44:24;;;;;;;3.33;2.92;;;10.90;99.90;;;;;;5018390;28;20907;-68
2023/04/17 09:46:55;;;;;;;7.05;3.72;;;10.80;99.90;;;;;;5039444;28;20518;-69
2023/04/17 09:49:41;;;;;;;5.03;2.72;;;10.70;99.90;;;;;;5072557;28;20434;-68
2023/04/17 09:52:08;;;;;;;3.47;3.17;;;10.60;99.90;;;;;;5052326;28;20435;-68
2023/04/17 09:54:38;;;;;;;4.95;3.33;;;10.30;99.90;;;;;;5057457;28;20446;-68
2023/04/17 09:57:09;;;;;;;3.17;2.88;;;10.00;99.90;;;;;;5066542;28;20430;-68
2023/04/17 09:59:40;;;;;;;7.35;3.72;;;9.90;99.90;;;;;;5063512;28;20431;-68
2023/04/17 10:02:10;;;;;;;4.43;3.22;;;9.80;99.90;;;;;;5062908;28;20434;-68
2023/04/17 10:04:41;;;;;;;3.45;2.97;;;10.00;99.90;;;;;;5068243;28;20517;-68
2023/04/17 10:07:12;;;;;;;4.35;3.00;;;10.40;99.90;;;;;;5067227;28;20444;-68
2023/04/17 10:09:40;;;;;;;9.63;3.83;;;11.20;99.90;;;;;;5058955;28;20442;-68
2023/04/17 10:12:19;;;;;;;4.43;3.67;;;12.00;99.90;;;;;;5057174;28;20543;-68
2023/04/17 10:14:50;;;;;;;4.70;3.13;;;12.60;99.90;;;;;;5061331;28;20427;-67
2023/04/17 10:17:31;;;;;;;3.53;2.83;;;12.90;99.90;;;;;;5053213;28;20920;-68
2023/04/17 10:20:16;;;;;;;4.22;3.05;;;13.20;99.90;;;;;;5060531;28;21176;-69
2023/04/17 10:22:44;;;;;;;2.88;2.67;;;13.50;99.90;;;;;;5062992;28;20435;-69
2023/04/17 10:25:11;;;;;;;4.78;2.92;;;13.60;99.90;;;;;;5064629;28;20435;-69
2023/04/17 10:27:41;;;;;;;3.50;2.88;;;13.80;99.90;;;;;;5062451;28;20454;-70
2023/04/17 10:30:13;;;;;;;2.60;2.40;;;13.90;99.90;;;;;;5058193;28;20899;-69
2023/04/17 10:32:43;;;;;;;3.30;2.87;;;14.00;99.90;;;;;;5066076;28;20438;-69
2023/04/17 10:35:16;;;;;;;2.65;2.45;;;14.50;99.90;;;;;;5062409;28;20431;-69
2023/04/17 10:37:51;;;;;;;3.20;2.83;;;15.00;99.90;;;;;;5058587;28;20423;-70
2023/04/17 10:40:32;;;;;;;2.95;2.30;;;15.50;99.90;;;;;;5057560;28;20506;-70
2023/04/17 10:43:16;;;;;;;2.83;2.20;;;15.80;99.90;;;;;;5057621;28;20525;-70
2023/04/17 10:45:55;;;;;;;2.47;2.33;;;15.60;99.90;;;;;;5060624;28;20427;-70
2023/04/17 10:48:37;;;;;;;5.80;1.60;;;16.00;99.90;;;;;;5054375;28;20522;-69
2023/04/17 10:51:20;;;;;;;1.92;1.83;;;16.10;99.90;;;;;;5068345;28;20442;-71
2023/04/17 10:53:56;;;;;;;2.63;1.67;;;16.70;99.90;;;;;;5064535;28;20435;-70
2023/04/17 10:56:26;;;;;;;1.77;1.67;;;16.80;99.90;;;;;;5063009;28;20511;-72
2023/04/17 10:59:00;;;;;;;2.13;2.00;;;16.60;99.90;;;;;;5078931;28;20431;-71
2023/04/17 11:01:46;;;;;;;3.83;1.77;;;16.20;99.90;;;;;;5068622;28;20903;-68
2023/04/17 11:04:27;;;;;;;1.40;1.40;;;16.30;99.90;;;;;;5055510;28;20429;-71
2023/04/17 11:06:55;;;;;;;1.40;1.30;;;15.80;99.90;;;;;;5067039;28;20428;-69
2023/04/17 11:09:24;;;;;;;1.30;1.20;;;15.60;99.90;;;;;;5066913;28;20864;-73
2023/04/17 11:11:50;;;;;;;1.17;1.10;;;15.40;99.90;;;;;;5071634;28;20494;-73
2023/04/17 11:14:19;;;;;;;1.60;0.88;;;15.20;99.90;;;;;;5068968;28;20913;-71
2023/04/17 11:16:48;;;;;;;1.15;1.15;;;14.90;99.90;;;;;;5068213;28;20423;-73
2023/04/17 11:19:23;;;;;;;1.50;0.90;;;14.90;99.90;;;;;;5064193;28;20773;-72
2023/04/17 11:22:01;;;;;;;1.55;1.20;;;14.70;99.90;;;;;;5071906;28;20441;-72
2023/04/17 11:24:31;;;;;;;0.70;0.70;;;14.50;99.90;;;;;;5066425;28;20431;-71
2023/04/17 11:27:00;;;;;;;1.08;0.90;;;14.50;99.90;;;;;;5057675;28;20435;-72
2023/04/17 11:29:27;;;;;;;0.95;0.82;;;14.50;99.90;;;;;;5048371;28;20535;-70
2023/04/17 11:31:55;;;;;;;0.80;0.80;;;14.50;99.90;;;;;;5063385;28;20439;-71
2023/04/17 11:34:25;;;;;;;0.60;0.60;;;14.20;99.90;;;;;;5069284;28;20456;-65
2023/04/17 11:36:56;;;;;;;1.10;1.10;;;13.80;99.90;;;;;;5065808;28;20441;-69
2023/04/17 11:39:25;;;;;;;1.02;0.85;;;13.60;99.90;;;;;;5069428;28;20914;-68
2023/04/17 11:41:52;;;;;;;1.23;1.13;;;13.50;99.90;;;;;;5061545;28;20467;-69
2023/04/17 11:44:19;;;;;;;1.38;1.20;;;13.40;99.90;;;;;;5067991;28;20427;-69
2023/04/17 11:46:53;;;;;;;1.23;1.15;;;13.70;99.90;;;;;;5066459;28;20445;-68
2023/04/17 11:49:28;;;;;;;0.95;0.95;;;14.10;99.90;;;;;;5063550;28;21299;-68
2023/04/17 11:51:58;;;;;;;0.93;0.93;;;14.50;99.90;;;;;;5059751;28;20433;-68
2023/04/17 11:54:36;;;;;;;0.93;0.93;;;14.90;99.90;;;;;;5104334;28;20425;-69
2023/04/17 11:57:04;;;;;;;1.00;0.95;;;15.30;99.90;;;;;;5066321;28;20941;-68
2023/04/17 11:59:36;;;;;;;1.13;1.03;;;15.80;99.90;;;;;;5066246;28;20452;-68
2023/04/17 12:02:06;;;;;;;0.82;0.82;;;16.80;99.90;;;;;;5065609;28;20432;-68
2023/04/17 12:04:35;;;;;;;0.90;0.90;;;17.40;99.90;;;;;;5066865;28;20768;-68
2023/04/17 12:07:03;;;;;;;1.00;0.75;;;17.80;99.90;;;;;;5069272;28;20438;-69
2023/04/17 12:09:34;;;;;;;1.40;0.90;;;17.90;99.90;;;;;;5063864;28;20430;-69
2023/04/17 12:12:04;;;;;;;0.93;0.85;;;17.10;99.90;;;;;;5051905;28;20433;-68
2023/04/17 12:14:31;;;;;;;0.90;0.90;;;16.90;99.90;;;;;;5085951;28;20917;-69
2023/04/17 12:16:58;;;;;;;0.80;0.50;;;16.90;99.90;;;;;;5070111;28;20444;-69
2023/04/17 12:19:26;;;;;;;0.90;0.90;;;16.60;99.90;;;;;;5067003;28;20432;-70
2023/04/17 12:21:53;;;;;;;1.50;0.90;;;16.00;99.90;;;;;;5070094;28;20948;-68
2023/04/17 12:24:23;;;;;;;0.83;0.83;;;15.50;99.90;;;;;;5069520;28;20467;-68
2023/04/17 12:26:50;;;;;;;0.82;0.82;;;14.80;99.90;;;;;;5055647;28;20431;-69
2023/04/17 12:29:17;;;;;;;1.30;1.00;;;14.50;99.90;;;;;;5069989;28;20476;-68
2023/04/17 12:31:55;;;;;;;1.05;1.05;;;14.10;99.90;;;;;;5060651;28;20446;-68
2023/04/17 12:34:22;;;;;;;5.43;0.80;;;14.00;99.90;;;;;;5060481;28;20439;-69
2023/04/17 12:36:49;;;;;;;0.68;0.68;;;13.90;99.90;;;;;;5068326;28;20872;-69
2023/04/17 12:39:17;;;;;;;0.50;0.50;;;13.80;99.90;;;;;;5062177;28;21086;-68
2023/04/17 12:41:44;;;;;;;0.90;0.90;;;13.80;99.90;;;;;;5062917;28;20453;-69
2023/04/17 12:44:10;;;;;;;0.47;0.47;;;13.50;99.90;;;;;;5067162;28;20427;-68
2023/04/17 12:46:38;;;;;;;0.50;0.50;;;13.60;99.90;;;;;;5067168;28;20442;-69
2023/04/17 12:49:11;;;;;;;0.40;0.40;;;13.70;99.90;;;;;;5053326;28;20431;-69
2023/04/17 12:51:39;;;;;;;0.60;0.60;;;13.80;99.90;;;;;;5055469;28;20450;-69
2023/04/17 12:54:07;;;;;;;1.00;0.73;;;14.00;99.90;;;;;;5064725;28;20429;-68
2023/04/17 12:56:33;;;;;;;0.80;0.60;;;13.90;99.90;;;;;;5069202;28;20800;-68
2023/04/17 12:59:00;;;;;;;1.40;0.65;;;13.90;99.90;;;;;;5067593;28;21078;-69
2023/04/17 13:01:29;;;;;;;2.00;0.73;;;13.80;99.90;;;;;;5067588;28;20515;-69